sensor_id;sensor_type;location;lat;lon;timestamp;temperature;humidity
8459;DHT22;4266;48.816;9.154;2023-11-19T00:01:51;8.40;99.90
8459;DHT22;4266;48.816;9.154;2023-11-19T00:04:16;8.50;99.90
8459;DHT22;4266;48.816;9.154;2023-11-19T00:06:42;8.50;99.90
8459;DHT22;4266;48.816;9.154;2023-11-19T00:09:08;8.70;99.90
8459;DHT22;4266;48.816;9.154;2023-11-19T00:11:34;8.70;99.90
8459;DHT22;4266;48.816;9.154;2023-11-19T00:14:00;8.70;99.90
8459;DHT22;4266;48.816;9.154;2023-11-19T00:16:26;8.70;99.90
8459;DHT22;4266;48.816;9.154;2023-11-19T00:18:51;8.80;99.90
8459;DHT22;4266;48.816;9.154;2023-11-19T00:21:17;8.80;99.90
8459;DHT22;4266;48.816;9.154;2023-11-19T00:23:43;8.90;99.90
8459;DHT22;4266;48.816;9.154;2023-11-19T00:26:09;8.90;99.90
8459;DHT22;4266;48.816;9.154;2023-11-19T00:28:35;8.90;99.90
8459;DHT22;4266;48.816;9.154;2023-11-19T00:31:01;8.90;99.90
8459;DHT22;4266;48.816;9.154;2023-11-19T00:33:26;8.90;99.90
8459;DHT22;4266;48.816;9.154;2023-11-19T00:35:52;9.10;99.90
8459;DHT22;4266;48.816;9.154;2023-11-19T00:38:18;9.10;99.90
8459;DHT22;4266;48.816;9.154;2023-11-19T00:40:44;9.10;99.90
8459;DHT22;4266;48.816;9.154;2023-11-19T00:43:09;9.20;99.90
8459;DHT22;4266;48.816;9.154;2023-11-19T00:45:36;9.20;99.90
8459;DHT22;4266;48.816;9.154;2023-11-19T00:48:01;9.10;99.90
8459;DHT22;4266;48.816;9.154;2023-11-19T00:50:27;9.20;99.90
8459;DHT22;4266;48.816;9.154;2023-11-19T00:52:53;9.40;99.90
8459;DHT22;4266;48.816;9.154;2023-11-19T00:55:18;9.40;99.90
8459;DHT22;4266;48.816;9.154;2023-11-19T00:57:44;9.50;99.90
8459;DHT22;4266;48.816;9.154;2023-11-19T01:00:11;9.70;99.90
8459;DHT22;4266;48.816;9.154;2023-11-19T01:02:40;9.70;99.90
8459;DHT22;4266;48.816;9.154;2023-11-19T01:05:07;9.80;99.90
8459;DHT22;4266;48.816;9.154;2023-11-19T01:07:32;9.70;99.90
8459;DHT22;4266;48.816;9.154;2023-11-19T01:09:58;9.80;99.90
8459;DHT22;4266;48.816;9.154;2023-11-19T01:12:25;9.90;99.90
8459;DHT22;4266;48.816;9.154;2023-11-19T01:14:50;9.90;99.90
8459;DHT22;4266;48.816;9.154;2023-11-19T01:17:16;9.80;99.90
8459;DHT22;4266;48.816;9.154;2023-11-19T01:19:42;9.80;99.90
8459;DHT22;4266;48.816;9.154;2023-11-19T01:22:08;9.90;99.90
8459;DHT22;4266;48.816;9.154;2023-11-19T01:24:33;9.90;99.90
8459;DHT22;4266;48.816;9.154;2023-11-19T01:26:59;9.90;99.90
8459;DHT22;4266;48.816;9.154;2023-11-19T01:29:25;9.90;99.90
8459;DHT22;4266;48.816;9.154;2023-11-19T01:31:51;9.90;99.90
8459;DHT22;4266;48.816;9.154;2023-11-19T01:34:17;10.00;99.90
8459;DHT22;4266;48.816;9.154;2023-11-19T01:36:44;10.10;99.90
8459;DHT22;4266;48.816;9.154;2023-11-19T01:39:09;10.10;99.90
8459;DHT22;4266;48.816;9.154;2023-11-19T01:41:36;10.10;99.90
8459;DHT22;4266;48.816;9.154;2023-11-19T01:44:02;10.10;99.90
8459;DHT22;4266;48.816;9.154;2023-11-19T01:46:28;10.30;99.90
8459;DHT22;4266;48.816;9.154;2023-11-19T01:48:54;10.20;99.90
8459;DHT22;4266;48.816;9.154;2023-11-19T01:51:19;10.20;99.90
8459;DHT22;4266;48.816;9.154;2023-11-19T01:53:46;10.20;99.90
8459;DHT22;4266;48.816;9.154;2023-11-19T01:56:13;10.10;99.90
8459;DHT22;4266;48.816;9.154;2023-11-19T01:58:38;10.30;99.90
8459;DHT22;4266;48.816;9.154;2023-11-19T02:01:05;10.30;99.90
8459;DHT22;4266;48.816;9.154;2023-11-19T02:03:31;10.30;99.90
8459;DHT22;4266;48.816;9.154;2023-11-19T02:05:57;10.30;99.90
8459;DHT22;4266;48.816;9.154;2023-11-19T02:08:24;10.30;99.90
8459;DHT22;4266;48.816;9.154;2023-11-19T02:10:50;10.40;99.90
8459;DHT22;4266;48.816;9.154;2023-11-19T02:13:17;10.40;99.90
8459;DHT22;4266;48.816;9.154;2023-11-19T02:15:43;10.30;99.90
8459;DHT22;4266;48.816;9.154;2023-11-19T02:18:17;10.30;99.90
8459;DHT22;4266;48.816;9.154;2023-11-19T02:20:43;10.30;99.90
8459;DHT22;4266;48.816;9.154;2023-11-19T02:23:08;10.30;99.90
8459;DHT22;4266;48.816;9.154;2023-11-19T02:25:34;10.40;99.90
8459;DHT22;4266;48.816;9.154;2023-11-19T02:28:00;10.40;99.90
8459;DHT22;4266;48.816;9.154;2023-11-19T02:30:26;10.40;99.90
8459;DHT22;4266;48.816;9.154;2023-11-19T02:32:52;10.40;99.90
8459;DHT22;4266;48.816;9.154;2023-11-19T02:35:18;10.40;99.90
8459;DHT22;4266;48.816;9.154;2023-11-19T02:37:43;10.40;99.90
8459;DHT22;4266;48.816;9.154;2023-11-19T02:40:09;10.50;99.90
8459;DHT22;4266;48.816;9.154;2023-11-19T02:42:35;10.50;99.90
8459;DHT22;4266;48.816;9.154;2023-11-19T02:45:01;10.60;99.90
8459;DHT22;4266;48.816;9.154;2023-11-19T02:47:27;10.60;99.90
8459;DHT22;4266;48.816;9.154;2023-11-19T02:49:53;10.60;99.90
8459;DHT22;4266;48.816;9.154;2023-11-19T02:52:20;10.50;99.90
8459;DHT22;4266;48.816;9.154;2023-11-19T02:54:46;10.50;99.90
8459;DHT22;4266;48.816;9.154;2023-11-19T02:57:12;10.50;99.90
8459;DHT22;4266;48.816;9.154;2023-11-19T02:59:38;10.50;99.90
8459;DHT22;4266;48.816;9.154;2023-11-19T03:02:03;10.50;99.90
8459;DHT22;4266;48.816;9.154;2023-11-19T03:04:29;10.60;99.90
8459;DHT22;4266;48.816;9.154;2023-11-19T03:06:55;10.60;99.90
8459;DHT22;4266;48.816;9.154;2023-11-19T03:09:22;10.50;99.90
8459;DHT22;4266;48.816;9.154;2023-11-19T03:11:47;10.50;99.90
8459;DHT22;4266;48.816;9.154;2023-11-19T03:14:13;10.60;99.90
8459;DHT22;4266;48.816;9.154;2023-11-19T03:16:40;10.60;99.90
8459;DHT22;4266;48.816;9.154;2023-11-19T03:19:06;10.60;99.90
8459;DHT22;4266;48.816;9.154;2023-11-19T03:21:32;10.60;99.90
8459;DHT22;4266;48.816;9.154;2023-11-19T03:23:59;10.70;99.90
8459;DHT22;4266;48.816;9.154;2023-11-19T03:26:26;10.60;99.90
8459;DHT22;4266;48.816;9.154;2023-11-19T03:28:52;10.70;99.90
8459;DHT22;4266;48.816;9.154;2023-11-19T03:31:18;10.70;99.90
8459;DHT22;4266;48.816;9.154;2023-11-19T03:33:45;10.80;99.90
8459;DHT22;4266;48.816;9.154;2023-11-19T03:36:11;10.70;99.90
8459;DHT22;4266;48.816;9.154;2023-11-19T03:38:37;10.80;99.90
8459;DHT22;4266;48.816;9.154;2023-11-19T03:43:35;10.70;99.90
8459;DHT22;4266;48.816;9.154;2023-11-19T03:46:00;10.70;99.90
8459;DHT22;4266;48.816;9.154;2023-11-19T03:48:26;10.70;99.90
8459;DHT22;4266;48.816;9.154;2023-11-19T03:50:52;10.70;99.90
8459;DHT22;4266;48.816;9.154;2023-11-19T03:53:17;10.70;99.90
8459;DHT22;4266;48.816;9.154;2023-11-19T03:55:43;10.80;99.90
8459;DHT22;4266;48.816;9.154;2023-11-19T03:58:09;10.80;99.90
8459;DHT22;4266;48.816;9.154;2023-11-19T04:00:36;10.80;99.90
8459;DHT22;4266;48.816;9.154;2023-11-19T04:03:02;10.70;99.90
8459;DHT22;4266;48.816;9.154;2023-11-19T04:05:27;10.80;99.90
8459;DHT22;4266;48.816;9.154;2023-11-19T04:07:53;10.70;99.90
8459;DHT22;4266;48.816;9.154;2023-11-19T04:10:19;10.80;99.90
8459;DHT22;4266;48.816;9.154;2023-11-19T04:12:45;10.80;99.90
8459;DHT22;4266;48.816;9.154;2023-11-19T04:15:12;10.90;99.90
8459;DHT22;4266;48.816;9.154;2023-11-19T04:17:37;10.90;99.90
8459;DHT22;4266;48.816;9.154;2023-11-19T04:20:04;10.90;99.90
8459;DHT22;4266;48.816;9.154;2023-11-19T04:22:30;10.90;99.90
8459;DHT22;4266;48.816;9.154;2023-11-19T04:24:56;11.00;99.90
8459;DHT22;4266;48.816;9.154;2023-11-19T04:27:21;11.00;99.90
8459;DHT22;4266;48.816;9.154;2023-11-19T04:29:48;11.00;99.90
8459;DHT22;4266;48.816;9.154;2023-11-19T04:32:14;11.00;99.90
8459;DHT22;4266;48.816;9.154;2023-11-19T04:34:40;10.90;99.90
8459;DHT22;4266;48.816;9.154;2023-11-19T04:37:06;11.00;99.90
8459;DHT22;4266;48.816;9.154;2023-11-19T04:39:32;11.10;99.90
8459;DHT22;4266;48.816;9.154;2023-11-19T04:41:59;11.00;99.90
8459;DHT22;4266;48.816;9.154;2023-11-19T04:44:25;11.00;99.90
8459;DHT22;4266;48.816;9.154;2023-11-19T04:46:52;11.10;99.90
8459;DHT22;4266;48.816;9.154;2023-11-19T04:49:17;11.10;99.90
8459;DHT22;4266;48.816;9.154;2023-11-19T04:51:43;11.10;99.90
8459;DHT22;4266;48.816;9.154;2023-11-19T04:54:09;11.10;99.90
8459;DHT22;4266;48.816;9.154;2023-11-19T04:56:36;11.20;99.90
8459;DHT22;4266;48.816;9.154;2023-11-19T04:59:03;11.20;99.90
8459;DHT22;4266;48.816;9.154;2023-11-19T05:01:29;11.10;99.90
8459;DHT22;4266;48.816;9.154;2023-11-19T05:03:56;11.10;99.90
8459;DHT22;4266;48.816;9.154;2023-11-19T05:06:21;11.10;99.90
8459;DHT22;4266;48.816;9.154;2023-11-19T05:08:46;11.10;99.90
8459;DHT22;4266;48.816;9.154;2023-11-19T05:11:13;11.20;99.90
8459;DHT22;4266;48.816;9.154;2023-11-19T05:13:38;11.10;99.90
8459;DHT22;4266;48.816;9.154;2023-11-19T05:16:05;11.10;99.90
8459;DHT22;4266;48.816;9.154;2023-11-19T05:18:31;11.20;99.90
8459;DHT22;4266;48.816;9.154;2023-11-19T05:20:57;11.10;99.90
8459;DHT22;4266;48.816;9.154;2023-11-19T05:23:22;11.10;99.90
8459;DHT22;4266;48.816;9.154;2023-11-19T05:25:48;11.30;99.90
8459;DHT22;4266;48.816;9.154;2023-11-19T05:28:14;11.30;99.90
8459;DHT22;4266;48.816;9.154;2023-11-19T05:30:40;11.20;99.90
8459;DHT22;4266;48.816;9.154;2023-11-19T05:33:06;11.20;99.90
8459;DHT22;4266;48.816;9.154;2023-11-19T05:35:32;11.30;99.90
8459;DHT22;4266;48.816;9.154;2023-11-19T05:37:57;11.20;99.90
8459;DHT22;4266;48.816;9.154;2023-11-19T05:40:23;11.20;99.90
8459;DHT22;4266;48.816;9.154;2023-11-19T05:42:50;11.30;99.90
8459;DHT22;4266;48.816;9.154;2023-11-19T05:45:15;11.30;99.90
8459;DHT22;4266;48.816;9.154;2023-11-19T05:47:41;11.30;99.90
8459;DHT22;4266;48.816;9.154;2023-11-19T05:50:08;11.30;99.90
8459;DHT22;4266;48.816;9.154;2023-11-19T05:52:34;11.40;99.90
8459;DHT22;4266;48.816;9.154;2023-11-19T05:55:00;11.30;99.90
8459;DHT22;4266;48.816;9.154;2023-11-19T05:57:26;11.30;99.90
8459;DHT22;4266;48.816;9.154;2023-11-19T05:59:51;11.40;99.90
8459;DHT22;4266;48.816;9.154;2023-11-19T06:02:17;11.40;99.90
8459;DHT22;4266;48.816;9.154;2023-11-19T06:04:43;11.30;99.90
8459;DHT22;4266;48.816;9.154;2023-11-19T06:07:09;11.20;99.90
8459;DHT22;4266;48.816;9.154;2023-11-19T06:09:34;11.20;99.90
8459;DHT22;4266;48.816;9.154;2023-11-19T06:12:00;11.20;99.90
8459;DHT22;4266;48.816;9.154;2023-11-19T06:14:26;11.10;99.90
8459;DHT22;4266;48.816;9.154;2023-11-19T06:16:51;11.10;99.90
8459;DHT22;4266;48.816;9.154;2023-11-19T06:19:17;11.10;99.90
8459;DHT22;4266;48.816;9.154;2023-11-19T06:21:43;11.10;99.90
8459;DHT22;4266;48.816;9.154;2023-11-19T06:24:09;11.20;99.90
8459;DHT22;4266;48.816;9.154;2023-11-19T06:26:34;11.10;99.90
8459;DHT22;4266;48.816;9.154;2023-11-19T06:29:00;11.20;99.90
8459;DHT22;4266;48.816;9.154;2023-11-19T06:31:26;11.20;99.90
8459;DHT22;4266;48.816;9.154;2023-11-19T06:33:51;11.30;99.90
8459;DHT22;4266;48.816;9.154;2023-11-19T06:36:17;11.30;99.90
8459;DHT22;4266;48.816;9.154;2023-11-19T06:38:43;11.30;99.90
8459;DHT22;4266;48.816;9.154;2023-11-19T06:41:08;11.40;99.90
8459;DHT22;4266;48.816;9.154;2023-11-19T06:43:36;11.40;99.90
8459;DHT22;4266;48.816;9.154;2023-11-19T06:46:01;11.40;99.90
8459;DHT22;4266;48.816;9.154;2023-11-19T06:48:33;11.40;99.90
8459;DHT22;4266;48.816;9.154;2023-11-19T06:50:59;11.40;99.90
8459;DHT22;4266;48.816;9.154;2023-11-19T06:53:25;11.50;99.90
8459;DHT22;4266;48.816;9.154;2023-11-19T06:55:50;11.50;99.90
8459;DHT22;4266;48.816;9.154;2023-11-19T06:58:16;11.50;99.90
8459;DHT22;4266;48.816;9.154;2023-11-19T07:00:42;11.50;99.90
8459;DHT22;4266;48.816;9.154;2023-11-19T07:03:08;11.50;99.90
8459;DHT22;4266;48.816;9.154;2023-11-19T07:05:35;11.50;99.90
8459;DHT22;4266;48.816;9.154;2023-11-19T07:08:00;11.50;99.90
8459;DHT22;4266;48.816;9.154;2023-11-19T07:10:25;11.50;99.90
8459;DHT22;4266;48.816;9.154;2023-11-19T07:12:51;11.40;99.90
8459;DHT22;4266;48.816;9.154;2023-11-19T07:15:17;11.50;99.90
8459;DHT22;4266;48.816;9.154;2023-11-19T07:17:43;11.40;99.90
8459;DHT22;4266;48.816;9.154;2023-11-19T07:20:10;11.50;99.90
8459;DHT22;4266;48.816;9.154;2023-11-19T07:22:36;11.50;99.90
8459;DHT22;4266;48.816;9.154;2023-11-19T07:25:01;11.50;99.90
8459;DHT22;4266;48.816;9.154;2023-11-19T07:27:28;11.50;99.90
8459;DHT22;4266;48.816;9.154;2023-11-19T07:29:54;11.50;99.90
8459;DHT22;4266;48.816;9.154;2023-11-19T07:32:20;11.50;99.90
8459;DHT22;4266;48.816;9.154;2023-11-19T07:34:46;11.60;99.90
8459;DHT22;4266;48.816;9.154;2023-11-19T07:37:12;11.70;99.90
8459;DHT22;4266;48.816;9.154;2023-11-19T07:39:39;11.70;99.90
8459;DHT22;4266;48.816;9.154;2023-11-19T07:42:04;11.70;99.90
8459;DHT22;4266;48.816;9.154;2023-11-19T07:44:31;11.70;99.90
8459;DHT22;4266;48.816;9.154;2023-11-19T07:46:57;11.70;99.90
8459;DHT22;4266;48.816;9.154;2023-11-19T07:49:22;11.70;99.90
8459;DHT22;4266;48.816;9.154;2023-11-19T07:51:48;11.70;99.90
8459;DHT22;4266;48.816;9.154;2023-11-19T07:54:14;11.80;99.90
8459;DHT22;4266;48.816;9.154;2023-11-19T07:56:40;11.80;99.90
8459;DHT22;4266;48.816;9.154;2023-11-19T07:59:05;11.70;99.90
8459;DHT22;4266;48.816;9.154;2023-11-19T08:01:32;11.80;99.90
8459;DHT22;4266;48.816;9.154;2023-11-19T08:03:57;11.80;99.90
8459;DHT22;4266;48.816;9.154;2023-11-19T08:06:23;11.90;99.90
8459;DHT22;4266;48.816;9.154;2023-11-19T08:08:49;11.90;99.90
8459;DHT22;4266;48.816;9.154;2023-11-19T08:11:15;12.00;99.90
8459;DHT22;4266;48.816;9.154;2023-11-19T08:13:41;12.00;99.90
8459;DHT22;4266;48.816;9.154;2023-11-19T08:16:07;12.10;99.90
8459;DHT22;4266;48.816;9.154;2023-11-19T08:18:34;12.30;99.90
8459;DHT22;4266;48.816;9.154;2023-11-19T08:21:00;12.50;99.90
8459;DHT22;4266;48.816;9.154;2023-11-19T08:23:26;12.50;99.90
8459;DHT22;4266;48.816;9.154;2023-11-19T08:25:52;13.00;99.90
8459;DHT22;4266;48.816;9.154;2023-11-19T08:28:18;13.30;99.90
8459;DHT22;4266;48.816;9.154;2023-11-19T08:30:44;13.30;99.90
8459;DHT22;4266;48.816;9.154;2023-11-19T08:33:10;13.50;99.90
8459;DHT22;4266;48.816;9.154;2023-11-19T08:35:36;14.30;99.90
8459;DHT22;4266;48.816;9.154;2023-11-19T08:38:01;13.90;99.90
8459;DHT22;4266;48.816;9.154;2023-11-19T08:40:27;14.70;99.90
8459;DHT22;4266;48.816;9.154;2023-11-19T08:42:53;20.00;91.90
8459;DHT22;4266;48.816;9.154;2023-11-19T08:45:18;20.90;87.10
8459;DHT22;4266;48.816;9.154;2023-11-19T08:47:44;18.60;84.50
8459;DHT22;4266;48.816;9.154;2023-11-19T08:50:10;17.30;88.40
8459;DHT22;4266;48.816;9.154;2023-11-19T08:52:36;16.50;91.50
8459;DHT22;4266;48.816;9.154;2023-11-19T08:55:01;15.70;92.90
8459;DHT22;4266;48.816;9.154;2023-11-19T08:57:27;15.30;95.60
8459;DHT22;4266;48.816;9.154;2023-11-19T08:59:53;15.30;96.00
8459;DHT22;4266;48.816;9.154;2023-11-19T09:02:19;15.20;95.90
8459;DHT22;4266;48.816;9.154;2023-11-19T09:04:44;14.80;96.70
8459;DHT22;4266;48.816;9.154;2023-11-19T09:07:10;16.00;96.00
8459;DHT22;4266;48.816;9.154;2023-11-19T09:09:36;18.60;92.50
8459;DHT22;4266;48.816;9.154;2023-11-19T09:12:02;19.20;86.30
8459;DHT22;4266;48.816;9.154;2023-11-19T09:14:28;19.20;86.40
8459;DHT22;4266;48.816;9.154;2023-11-19T09:16:54;19.60;85.80
8459;DHT22;4266;48.816;9.154;2023-11-19T09:19:19;19.90;80.30
8459;DHT22;4266;48.816;9.154;2023-11-19T09:21:45;18.20;83.30
8459;DHT22;4266;48.816;9.154;2023-11-19T09:24:11;17.20;85.70
8459;DHT22;4266;48.816;9.154;2023-11-19T09:26:37;16.80;87.90
8459;DHT22;4266;48.816;9.154;2023-11-19T09:29:02;16.40;89.70
8459;DHT22;4266;48.816;9.154;2023-11-19T09:31:28;16.20;90.30
8459;DHT22;4266;48.816;9.154;2023-11-19T09:33:54;16.10;90.90
8459;DHT22;4266;48.816;9.154;2023-11-19T09:36:20;15.80;92.60
8459;DHT22;4266;48.816;9.154;2023-11-19T09:38:46;15.80;92.60
8459;DHT22;4266;48.816;9.154;2023-11-19T09:41:12;15.60;92.60
8459;DHT22;4266;48.816;9.154;2023-11-19T09:43:38;15.40;93.80
8459;DHT22;4266;48.816;9.154;2023-11-19T09:46:05;15.60;94.70
8459;DHT22;4266;48.816;9.154;2023-11-19T09:48:32;17.70;92.10
8459;DHT22;4266;48.816;9.154;2023-11-19T09:50:57;22.50;81.60
8459;DHT22;4266;48.816;9.154;2023-11-19T09:53:23;23.50;72.60
8459;DHT22;4266;48.816;9.154;2023-11-19T09:55:48;23.80;69.40
8459;DHT22;4266;48.816;9.154;2023-11-19T09:58:14;21.70;69.70
8459;DHT22;4266;48.816;9.154;2023-11-19T10:00:40;22.20;69.30
8459;DHT22;4266;48.816;9.154;2023-11-19T10:03:07;20.80;71.00
8459;DHT22;4266;48.816;9.154;2023-11-19T10:05:33;19.90;72.30
8459;DHT22;4266;48.816;9.154;2023-11-19T10:07:59;19.20;73.40
8459;DHT22;4266;48.816;9.154;2023-11-19T10:10:25;19.80;73.30
8459;DHT22;4266;48.816;9.154;2023-11-19T10:12:52;19.30;74.30
8459;DHT22;4266;48.816;9.154;2023-11-19T10:15:21;19.30;74.30
8459;DHT22;4266;48.816;9.154;2023-11-19T10:17:46;18.80;75.60
8459;DHT22;4266;48.816;9.154;2023-11-19T10:20:12;18.40;77.30
8459;DHT22;4266;48.816;9.154;2023-11-19T10:22:38;18.30;80.20
8459;DHT22;4266;48.816;9.154;2023-11-19T10:25:05;20.00;72.80
8459;DHT22;4266;48.816;9.154;2023-11-19T10:27:31;19.30;70.00
8459;DHT22;4266;48.816;9.154;2023-11-19T10:29:59;20.50;69.50
8459;DHT22;4266;48.816;9.154;2023-11-19T10:32:23;20.50;69.60
8459;DHT22;4266;48.816;9.154;2023-11-19T10:34:49;19.40;69.70
8459;DHT22;4266;48.816;9.154;2023-11-19T10:37:27;19.00;71.00
8459;DHT22;4266;48.816;9.154;2023-11-19T10:39:51;18.40;71.20
8459;DHT22;4266;48.816;9.154;2023-11-19T10:42:17;23.40;66.30
8459;DHT22;4266;48.816;9.154;2023-11-19T10:44:43;23.40;66.30
8459;DHT22;4266;48.816;9.154;2023-11-19T10:47:09;21.90;63.20
8459;DHT22;4266;48.816;9.154;2023-11-19T10:49:36;23.10;60.30
8459;DHT22;4266;48.816;9.154;2023-11-19T10:52:02;23.00;60.10
8459;DHT22;4266;48.816;9.154;2023-11-19T10:54:28;22.90;59.90
8459;DHT22;4266;48.816;9.154;2023-11-19T10:56:55;23.40;59.50
8459;DHT22;4266;48.816;9.154;2023-11-19T10:59:20;23.40;59.50
8459;DHT22;4266;48.816;9.154;2023-11-19T11:01:46;21.90;60.00
8459;DHT22;4266;48.816;9.154;2023-11-19T11:04:13;21.70;59.60
8459;DHT22;4266;48.816;9.154;2023-11-19T11:06:38;20.90;60.40
8459;DHT22;4266;48.816;9.154;2023-11-19T11:09:05;20.60;61.00
8459;DHT22;4266;48.816;9.154;2023-11-19T11:11:30;19.70;60.20
8459;DHT22;4266;48.816;9.154;2023-11-19T11:13:56;19.10;62.10
8459;DHT22;4266;48.816;9.154;2023-11-19T11:16:23;18.90;61.60
8459;DHT22;4266;48.816;9.154;2023-11-19T11:18:48;18.90;61.60
8459;DHT22;4266;48.816;9.154;2023-11-19T11:21:16;18.50;63.30
8459;DHT22;4266;48.816;9.154;2023-11-19T11:23:47;18.00;64.20
8459;DHT22;4266;48.816;9.154;2023-11-19T11:26:30;17.90;63.80
8459;DHT22;4266;48.816;9.154;2023-11-19T11:28:59;18.00;63.70
8459;DHT22;4266;48.816;9.154;2023-11-19T11:31:30;17.90;64.30
8459;DHT22;4266;48.816;9.154;2023-11-19T11:33:59;17.90;65.30
8459;DHT22;4266;48.816;9.154;2023-11-19T11:36:22;17.80;63.90
8459;DHT22;4266;48.816;9.154;2023-11-19T11:38:47;18.60;63.70
8459;DHT22;4266;48.816;9.154;2023-11-19T11:41:14;19.20;61.80
8459;DHT22;4266;48.816;9.154;2023-11-19T11:43:43;21.60;62.50
8459;DHT22;4266;48.816;9.154;2023-11-19T11:46:09;24.10;57.60
8459;DHT22;4266;48.816;9.154;2023-11-19T11:48:35;20.00;59.90
8459;DHT22;4266;48.816;9.154;2023-11-19T11:51:01;20.00;59.90
8459;DHT22;4266;48.816;9.154;2023-11-19T11:53:27;19.00;60.30
8459;DHT22;4266;48.816;9.154;2023-11-19T11:55:53;18.60;60.00
8459;DHT22;4266;48.816;9.154;2023-11-19T11:58:19;18.10;62.50
8459;DHT22;4266;48.816;9.154;2023-11-19T12:00:44;19.00;62.60
8459;DHT22;4266;48.816;9.154;2023-11-19T12:03:10;21.40;60.50
8459;DHT22;4266;48.816;9.154;2023-11-19T12:05:38;20.60;59.20
8459;DHT22;4266;48.816;9.154;2023-11-19T12:08:04;23.10;58.80
8459;DHT22;4266;48.816;9.154;2023-11-19T12:10:30;22.70;57.60
8459;DHT22;4266;48.816;9.154;2023-11-19T12:12:58;21.90;57.30
8459;DHT22;4266;48.816;9.154;2023-11-19T12:15:24;21.10;57.70
8459;DHT22;4266;48.816;9.154;2023-11-19T12:17:51;23.10;58.30
8459;DHT22;4266;48.816;9.154;2023-11-19T12:20:18;23.10;58.30
8459;DHT22;4266;48.816;9.154;2023-11-19T12:22:44;22.10;55.60
8459;DHT22;4266;48.816;9.154;2023-11-19T12:25:10;21.30;56.30
8459;DHT22;4266;48.816;9.154;2023-11-19T12:27:36;22.00;56.80
8459;DHT22;4266;48.816;9.154;2023-11-19T12:30:02;21.50;55.80
8459;DHT22;4266;48.816;9.154;2023-11-19T12:32:36;21.80;56.00
8459;DHT22;4266;48.816;9.154;2023-11-19T12:34:54;21.80;56.00
8459;DHT22;4266;48.816;9.154;2023-11-19T12:37:21;24.50;53.30
8459;DHT22;4266;48.816;9.154;2023-11-19T12:39:47;24.70;51.70
8459;DHT22;4266;48.816;9.154;2023-11-19T12:42:14;25.70;51.00
8459;DHT22;4266;48.816;9.154;2023-11-19T12:44:53;26.20;51.20
8459;DHT22;4266;48.816;9.154;2023-11-19T12:47:06;26.20;51.30
8459;DHT22;4266;48.816;9.154;2023-11-19T12:49:33;25.20;49.40
8459;DHT22;4266;48.816;9.154;2023-11-19T12:51:59;25.40;48.70
8459;DHT22;4266;48.816;9.154;2023-11-19T12:54:32;25.30;48.60
8459;DHT22;4266;48.816;9.154;2023-11-19T12:56:57;25.50;48.10
8459;DHT22;4266;48.816;9.154;2023-11-19T12:59:24;25.50;48.00
8459;DHT22;4266;48.816;9.154;2023-11-19T13:01:55;25.40;48.00
8459;DHT22;4266;48.816;9.154;2023-11-19T13:04:20;25.40;48.00
8459;DHT22;4266;48.816;9.154;2023-11-19T13:06:46;23.50;48.30
8459;DHT22;4266;48.816;9.154;2023-11-19T13:09:23;23.40;49.50
8459;DHT22;4266;48.816;9.154;2023-11-19T13:11:51;23.10;49.20
8459;DHT22;4266;48.816;9.154;2023-11-19T13:14:17;22.80;49.80
8459;DHT22;4266;48.816;9.154;2023-11-19T13:16:43;21.70;50.00
8459;DHT22;4266;48.816;9.154;2023-11-19T13:19:09;20.40;50.30
8459;DHT22;4266;48.816;9.154;2023-11-19T13:21:34;20.70;50.20
8459;DHT22;4266;48.816;9.154;2023-11-19T13:24:00;20.40;51.10
8459;DHT22;4266;48.816;9.154;2023-11-19T13:26:26;22.00;50.80
8459;DHT22;4266;48.816;9.154;2023-11-19T13:28:52;21.20;49.90
8459;DHT22;4266;48.816;9.154;2023-11-19T13:31:19;19.90;50.70
8459;DHT22;4266;48.816;9.154;2023-11-19T13:33:45;20.60;50.90
8459;DHT22;4266;48.816;9.154;2023-11-19T13:36:12;19.50;51.20
8459;DHT22;4266;48.816;9.154;2023-11-19T13:38:38;19.90;50.90
8459;DHT22;4266;48.816;9.154;2023-11-19T13:41:04;19.90;50.90
8459;DHT22;4266;48.816;9.154;2023-11-19T13:43:30;20.20;51.20
8459;DHT22;4266;48.816;9.154;2023-11-19T13:45:56;19.10;51.70
8459;DHT22;4266;48.816;9.154;2023-11-19T13:48:21;18.80;52.50
8459;DHT22;4266;48.816;9.154;2023-11-19T13:50:47;18.90;52.10
8459;DHT22;4266;48.816;9.154;2023-11-19T13:53:13;18.60;51.50
8459;DHT22;4266;48.816;9.154;2023-11-19T13:55:38;18.30;51.50
8459;DHT22;4266;48.816;9.154;2023-11-19T13:58:04;19.70;51.50
8459;DHT22;4266;48.816;9.154;2023-11-19T14:00:31;19.70;50.00
8459;DHT22;4266;48.816;9.154;2023-11-19T14:02:57;19.90;49.60
8459;DHT22;4266;48.816;9.154;2023-11-19T14:05:23;19.90;49.50
8459;DHT22;4266;48.816;9.154;2023-11-19T14:07:48;20.00;49.00
8459;DHT22;4266;48.816;9.154;2023-11-19T14:10:14;19.50;49.30
8459;DHT22;4266;48.816;9.154;2023-11-19T14:12:40;18.20;49.00
8459;DHT22;4266;48.816;9.154;2023-11-19T14:15:08;17.00;49.60
8459;DHT22;4266;48.816;9.154;2023-11-19T14:17:33;17.00;49.50
8459;DHT22;4266;48.816;9.154;2023-11-19T14:20:00;16.80;50.10
8459;DHT22;4266;48.816;9.154;2023-11-19T14:22:26;16.70;49.70
8459;DHT22;4266;48.816;9.154;2023-11-19T14:24:51;16.30;50.10
8459;DHT22;4266;48.816;9.154;2023-11-19T14:27:17;16.10;50.50
8459;DHT22;4266;48.816;9.154;2023-11-19T14:29:43;16.00;50.60
8459;DHT22;4266;48.816;9.154;2023-11-19T14:32:09;15.70;51.20
8459;DHT22;4266;48.816;9.154;2023-11-19T14:34:35;15.50;51.70
8459;DHT22;4266;48.816;9.154;2023-11-19T14:37:01;15.20;52.40
8459;DHT22;4266;48.816;9.154;2023-11-19T14:39:27;15.20;52.40
8459;DHT22;4266;48.816;9.154;2023-11-19T14:41:53;15.10;52.70
8459;DHT22;4266;48.816;9.154;2023-11-19T14:44:19;15.00;53.10
8459;DHT22;4266;48.816;9.154;2023-11-19T14:46:44;14.90;53.10
8459;DHT22;4266;48.816;9.154;2023-11-19T14:49:10;14.80;53.70
8459;DHT22;4266;48.816;9.154;2023-11-19T14:51:36;14.70;54.00
8459;DHT22;4266;48.816;9.154;2023-11-19T14:54:02;14.60;54.40
8459;DHT22;4266;48.816;9.154;2023-11-19T14:56:28;14.50;54.60
8459;DHT22;4266;48.816;9.154;2023-11-19T14:58:54;14.40;54.40
8459;DHT22;4266;48.816;9.154;2023-11-19T15:01:19;14.40;55.00
8459;DHT22;4266;48.816;9.154;2023-11-19T15:03:46;14.10;55.70
8459;DHT22;4266;48.816;9.154;2023-11-19T15:06:13;14.00;55.80
8459;DHT22;4266;48.816;9.154;2023-11-19T15:08:39;14.00;55.70
8459;DHT22;4266;48.816;9.154;2023-11-19T15:11:05;13.90;55.90
8459;DHT22;4266;48.816;9.154;2023-11-19T15:13:31;13.90;56.20
8459;DHT22;4266;48.816;9.154;2023-11-19T15:15:57;13.80;56.30
8459;DHT22;4266;48.816;9.154;2023-11-19T15:18:23;13.70;56.10
8459;DHT22;4266;48.816;9.154;2023-11-19T15:20:49;13.60;56.20
8459;DHT22;4266;48.816;9.154;2023-11-19T15:23:16;13.50;56.40
8459;DHT22;4266;48.816;9.154;2023-11-19T15:25:42;13.50;56.30
8459;DHT22;4266;48.816;9.154;2023-11-19T15:28:08;13.40;56.30
8459;DHT22;4266;48.816;9.154;2023-11-19T15:30:35;13.30;56.80
8459;DHT22;4266;48.816;9.154;2023-11-19T15:33:00;13.30;56.80
8459;DHT22;4266;48.816;9.154;2023-11-19T15:35:26;13.20;57.10
8459;DHT22;4266;48.816;9.154;2023-11-19T15:37:52;13.10;57.40
8459;DHT22;4266;48.816;9.154;2023-11-19T15:40:18;12.90;58.00
8459;DHT22;4266;48.816;9.154;2023-11-19T15:42:45;12.90;58.00
8459;DHT22;4266;48.816;9.154;2023-11-19T15:45:10;12.90;58.00
8459;DHT22;4266;48.816;9.154;2023-11-19T15:47:36;12.90;58.50
8459;DHT22;4266;48.816;9.154;2023-11-19T15:50:02;12.90;58.40
8459;DHT22;4266;48.816;9.154;2023-11-19T15:52:27;12.80;58.70
8459;DHT22;4266;48.816;9.154;2023-11-19T15:54:53;12.70;58.90
8459;DHT22;4266;48.816;9.154;2023-11-19T15:57:19;12.70;59.40